Aviation Digital Data Service (ADDS)

Output produced by METARs form (1947 UTC 03 June 2015)
found at http://aviationweather.gov/adds/metars/
 
KROC 031723Z 0318/0418 10005KT P6SM SKC 
     FM031900 05008KT P6SM SKC 
     FM040200 13005KT P6SM SKC 
     FM041600 15006KT P6SM BKN050